createdAt,value
2018-05-04T00:02:01.499Z,3.37
2018-05-04T00:04:28.548Z,3.37
2018-05-04T00:06:55.602Z,3.40
2018-05-04T00:09:23.463Z,3.97
2018-05-04T00:11:50.518Z,3.47
2018-05-04T00:14:17.559Z,3.87
2018-05-04T00:16:44.610Z,4.40
2018-05-04T00:19:11.694Z,4.67
2018-05-04T00:21:39.628Z,4.17
2018-05-04T00:24:06.677Z,5.23
2018-05-04T00:26:33.729Z,5.17
2018-05-04T00:29:00.837Z,4.93
2018-05-04T00:31:27.924Z,5.50
2018-05-04T00:33:54.971Z,4.47
2018-05-04T00:36:22.028Z,4.80
2018-05-04T00:38:49.075Z,4.77
2018-05-04T00:41:16.527Z,4.40
2018-05-04T00:43:43.578Z,4.90
2018-05-04T00:46:10.632Z,5.13
2018-05-04T00:48:37.642Z,4.93
2018-05-04T00:51:04.723Z,5.40
2018-05-04T00:53:31.777Z,5.73
2018-05-04T00:55:58.824Z,4.23
2018-05-04T00:58:25.868Z,5.07
2018-05-04T01:00:54.045Z,5.47
2018-05-04T01:03:21.812Z,4.77
2018-05-04T01:05:48.962Z,5.07
2018-05-04T01:08:16.009Z,5.23
2018-05-04T01:10:43.062Z,4.60
2018-05-04T01:13:10.999Z,4.53
2018-05-04T01:15:38.084Z,4.70
2018-05-04T01:18:05.132Z,4.43
2018-05-04T01:20:32.145Z,4.57
2018-05-04T01:22:59.126Z,5.07
2018-05-04T01:25:26.135Z,3.97
2018-05-04T01:27:53.217Z,4.47
2018-05-04T01:30:20.273Z,4.23
2018-05-04T01:32:47.315Z,4.57
2018-05-04T01:35:14.362Z,4.80
2018-05-04T01:37:41.417Z,5.00
2018-05-04T01:40:08.459Z,4.80
2018-05-04T01:42:35.507Z,5.37
2018-05-04T01:45:02.562Z,4.73
2018-05-04T01:47:29.609Z,5.43
2018-05-04T01:49:56.655Z,4.93
2018-05-04T01:52:23.708Z,5.90
2018-05-04T01:54:50.755Z,5.30
2018-05-04T01:57:17.799Z,4.50
2018-05-04T01:59:44.853Z,4.80
2018-05-04T02:02:11.898Z,4.57
2018-05-04T02:04:38.945Z,4.13
2018-05-04T02:07:06.001Z,4.03
2018-05-04T02:09:33.044Z,3.83
2018-05-04T02:12:00.092Z,3.90
2018-05-04T02:14:27.858Z,3.97
2018-05-04T02:17:00.577Z,4.47
2018-05-04T02:19:27.689Z,4.50
2018-05-04T02:21:54.743Z,4.30
2018-05-04T02:24:21.799Z,4.07
2018-05-04T02:26:48.835Z,4.67
2018-05-04T02:29:15.889Z,4.77
2018-05-04T02:31:43.240Z,4.37
2018-05-04T02:34:10.398Z,4.53
2018-05-04T02:36:37.440Z,4.23
2018-05-04T02:39:04.591Z,5.00
2018-05-04T02:41:31.643Z,3.77
2018-05-04T02:43:58.688Z,4.30
2018-05-04T02:46:25.696Z,3.60
2018-05-04T02:48:52.682Z,4.30
2018-05-04T02:51:19.730Z,3.90
2018-05-04T02:53:46.784Z,3.90
2018-05-04T02:56:13.793Z,3.37
2018-05-04T02:58:40.779Z,4.40
2018-05-04T03:01:07.822Z,3.77
2018-05-04T03:03:34.875Z,3.73
2018-05-04T03:06:01.925Z,3.63
2018-05-04T03:08:29.075Z,3.53
2018-05-04T03:10:56.119Z,3.23
2018-05-04T03:13:23.169Z,3.90
2018-05-04T03:15:50.182Z,3.73
2018-05-04T03:18:17.373Z,3.60
2018-05-04T03:20:44.416Z,4.03
2018-05-04T03:23:12.656Z,3.30
2018-05-04T03:25:39.747Z,4.00
2018-05-04T03:28:06.791Z,3.37
2018-05-04T03:30:34.863Z,3.77
2018-05-04T03:33:01.815Z,3.57
2018-05-04T03:35:28.857Z,3.70
2018-05-04T03:37:56.731Z,3.40
2018-05-04T03:40:25.075Z,3.03
2018-05-04T03:42:52.174Z,3.30
2018-05-04T03:45:19.203Z,3.40
2018-05-04T03:47:47.134Z,3.10
2018-05-04T03:50:14.531Z,2.90
2018-05-04T03:52:42.503Z,2.97
2018-05-04T03:55:09.553Z,3.20
2018-05-04T03:57:43.666Z,2.70
2018-05-04T04:00:16.757Z,3.23
2018-05-04T04:02:49.805Z,4.30
2018-05-04T04:05:16.897Z,3.77
2018-05-04T04:07:43.959Z,4.60
2018-05-04T04:10:11.093Z,4.77
2018-05-04T04:12:38.182Z,5.20
2018-05-04T04:15:05.199Z,4.60
2018-05-04T04:17:32.239Z,4.73
2018-05-04T04:19:59.289Z,4.50
2018-05-04T04:22:26.340Z,5.30
2018-05-04T04:24:53.815Z,4.37
2018-05-04T04:27:20.841Z,4.50
2018-05-04T04:29:47.889Z,4.47
2018-05-04T04:32:15.864Z,4.67
2018-05-04T04:34:42.908Z,4.47
2018-05-04T04:37:09.956Z,4.50
2018-05-04T04:39:37.932Z,4.27
2018-05-04T04:42:04.975Z,5.20
2018-05-04T04:44:33.215Z,5.10
2018-05-04T04:47:00.199Z,4.43
2018-05-04T04:49:27.249Z,4.63
2018-05-04T04:51:54.303Z,4.80
2018-05-04T04:54:21.314Z,4.77
2018-05-04T04:56:48.398Z,4.47
2018-05-04T04:59:15.447Z,4.37
2018-05-04T05:01:42.491Z,4.50
2018-05-04T05:04:09.543Z,4.33
2018-05-04T05:06:37.410Z,4.63
2018-05-04T05:09:04.456Z,3.87
2018-05-04T05:11:31.509Z,4.77
2018-05-04T05:13:59.274Z,4.80
2018-05-04T05:16:26.318Z,5.47
2018-05-04T05:18:53.470Z,5.10
2018-05-04T05:21:21.510Z,5.87
2018-05-04T05:23:49.076Z,5.77
2018-05-04T05:26:16.049Z,6.10
2018-05-04T05:28:43.718Z,6.63
2018-05-04T05:33:52.150Z,5.90
2018-05-04T05:36:19.193Z,6.37
2018-05-04T05:38:46.550Z,7.33
2018-05-04T05:41:14.007Z,6.70
2018-05-04T05:43:41.063Z,6.93
2018-05-04T05:46:08.104Z,7.47
2018-05-04T05:48:35.157Z,7.83
2018-05-04T05:51:02.406Z,8.10
2018-05-04T05:53:29.454Z,7.80
2018-05-04T05:55:56.605Z,7.00
2018-05-04T05:58:23.660Z,7.97
2018-05-04T06:00:50.703Z,7.30
2018-05-04T06:03:18.673Z,7.60
2018-05-04T06:05:45.726Z,7.30
2018-05-04T06:08:15.044Z,7.53
2018-05-04T06:10:42.383Z,7.93
2018-05-04T06:13:09.427Z,7.93
2018-05-04T06:15:36.566Z,7.23
2018-05-04T06:18:03.730Z,8.23
2018-05-04T06:20:30.784Z,7.27
2018-05-04T06:22:57.828Z,7.97
2018-05-04T06:25:24.876Z,7.80
2018-05-04T06:27:51.929Z,8.00
2018-05-04T06:30:18.973Z,7.90
2018-05-04T06:32:47.297Z,7.93
2018-05-04T06:35:14.755Z,8.17
2018-05-04T06:37:42.129Z,7.93
2018-05-04T06:40:09.528Z,8.03
2018-05-04T06:42:36.570Z,8.00
2018-05-04T06:45:03.619Z,7.67
2018-05-04T06:47:31.385Z,8.20
2018-05-04T06:49:58.945Z,7.77
2018-05-04T06:52:25.994Z,8.73
2018-05-04T06:54:53.048Z,8.50
2018-05-04T06:57:20.091Z,8.47
2018-05-04T06:59:47.825Z,8.23
2018-05-04T07:02:14.909Z,8.23
2018-05-04T07:04:43.420Z,8.87
2018-05-04T07:07:10.440Z,8.50
2018-05-04T07:09:38.613Z,9.10
2018-05-04T07:12:06.891Z,7.87
2018-05-04T07:14:33.944Z,8.20
2018-05-04T07:17:00.986Z,8.20
2018-05-04T07:19:29.124Z,8.33
2018-05-04T07:21:56.212Z,7.53
2018-05-04T07:24:23.259Z,8.73
2018-05-04T07:26:51.541Z,8.00
2018-05-04T07:29:18.585Z,8.37
2018-05-04T07:31:45.735Z,8.50
2018-05-04T07:34:12.785Z,8.13
2018-05-04T07:36:39.837Z,9.73
2018-05-04T07:39:06.883Z,11.37
2018-05-04T07:41:33.929Z,10.10
2018-05-04T07:44:01.080Z,11.47
2018-05-04T07:46:28.235Z,12.10
2018-05-04T07:48:55.285Z,13.20
2018-05-04T07:51:22.328Z,13.50
2018-05-04T07:53:49.377Z,24.20
2018-05-04T07:56:16.535Z,15.87
2018-05-04T07:58:43.678Z,23.00
2018-05-04T08:01:10.734Z,13.37
2018-05-04T08:03:37.776Z,12.23
2018-05-04T08:06:04.825Z,13.30
2018-05-04T08:08:31.883Z,14.47
2018-05-04T08:10:59.031Z,17.23
2018-05-04T08:13:26.073Z,14.27
2018-05-04T08:15:53.121Z,15.97
2018-05-04T08:18:20.175Z,12.43
2018-05-04T08:20:47.731Z,14.27
2018-05-04T08:23:14.784Z,13.57
2018-05-04T08:25:41.833Z,12.70
2018-05-04T08:28:08.979Z,18.10
2018-05-04T08:30:36.028Z,29.97
2018-05-04T08:33:03.081Z,23.37
2018-05-04T08:35:30.191Z,20.70
2018-05-04T08:37:58.305Z,20.70
2018-05-04T08:40:25.348Z,15.80
2018-05-04T08:42:52.444Z,15.23
2018-05-04T08:45:19.450Z,13.03
2018-05-04T08:47:46.494Z,11.90
2018-05-04T08:50:13.542Z,14.07
2018-05-04T08:52:40.906Z,13.03
2018-05-04T08:55:07.950Z,13.80
2018-05-04T08:57:35.104Z,11.53
2018-05-04T09:00:02.147Z,11.57
2018-05-04T09:02:29.200Z,11.87
2018-05-04T09:04:56.351Z,11.30
2018-05-04T09:07:23.395Z,10.10
2018-05-04T09:09:50.442Z,11.30
2018-05-04T09:12:20.125Z,11.00
2018-05-04T09:14:47.202Z,7.83
2018-05-04T09:17:14.255Z,10.27
2018-05-04T09:19:41.300Z,9.47
2018-05-04T09:22:08.348Z,9.50
2018-05-04T09:24:35.402Z,11.07
2018-05-04T09:27:02.447Z,10.77
2018-05-04T09:29:29.494Z,11.23
2018-05-04T09:31:56.547Z,9.03
2018-05-04T09:34:24.820Z,9.37
2018-05-04T09:36:51.869Z,10.00
2018-05-04T09:39:19.758Z,9.47
2018-05-04T09:41:46.785Z,8.90
2018-05-04T09:44:13.839Z,8.90
2018-05-04T09:46:40.883Z,9.40
2018-05-04T09:49:08.419Z,9.40
2018-05-04T09:51:35.491Z,9.30
2018-05-04T09:54:02.540Z,10.37
2018-05-04T09:56:29.594Z,8.70
2018-05-04T09:58:57.563Z,9.50
2018-05-04T10:01:24.613Z,7.37
2018-05-04T10:03:51.761Z,8.73
2018-05-04T10:06:18.814Z,5.70
2018-05-04T10:08:45.865Z,9.47
2018-05-04T10:11:12.909Z,9.30
2018-05-04T10:13:40.326Z,8.70
2018-05-04T10:16:07.486Z,9.90
2018-05-04T10:18:34.571Z,7.90
2018-05-04T10:21:01.577Z,9.17
2018-05-04T10:23:28.660Z,8.83
2018-05-04T10:25:55.717Z,8.70
2018-05-04T10:28:22.866Z,8.07
2018-05-04T10:30:49.910Z,8.70
2018-05-04T10:33:16.957Z,6.83
2018-05-04T10:35:44.010Z,8.70
2018-05-04T10:38:11.065Z,8.33
2018-05-04T10:40:38.205Z,8.50
2018-05-04T10:43:05.252Z,6.47
2018-05-04T10:45:32.305Z,7.20
2018-05-04T10:47:59.350Z,7.90
2018-05-04T10:50:26.399Z,7.43
2018-05-04T10:52:53.452Z,7.20
2018-05-04T10:55:21.096Z,6.80
2018-05-04T10:57:48.158Z,6.20
2018-05-04T11:00:15.216Z,6.65
2018-05-04T11:02:42.413Z,7.78
2018-05-04T11:05:09.611Z,7.45
2018-05-04T11:07:36.665Z,6.75
2018-05-04T11:10:03.818Z,7.85
2018-05-04T11:12:30.968Z,7.53
2018-05-04T11:14:58.933Z,6.20
2018-05-04T11:17:25.982Z,4.90
2018-05-04T11:19:53.035Z,6.68
2018-05-04T11:22:20.078Z,6.55
2018-05-04T11:24:47.127Z,6.87
2018-05-04T11:27:14.184Z,7.80
2018-05-04T11:29:41.224Z,5.93
2018-05-04T11:32:09.296Z,6.37
2018-05-04T11:34:36.448Z,7.45
2018-05-04T11:37:03.496Z,7.50
2018-05-04T11:39:31.633Z,6.55
2018-05-04T11:41:58.821Z,6.28
2018-05-04T11:44:25.869Z,6.32
2018-05-04T11:46:53.845Z,6.40
2018-05-04T11:49:20.890Z,6.53
2018-05-04T11:51:49.271Z,6.97
2018-05-04T11:54:16.317Z,6.35
2018-05-04T11:56:43.372Z,6.80
2018-05-04T11:59:10.414Z,6.53
2018-05-04T12:01:37.462Z,5.62
2018-05-04T12:04:04.614Z,5.95
2018-05-04T12:06:31.668Z,5.45
2018-05-04T12:08:58.711Z,5.95
2018-05-04T12:11:25.970Z,5.60
2018-05-04T12:13:54.140Z,6.80
2018-05-04T12:16:23.006Z,5.32
2018-05-04T12:18:50.080Z,5.80
2018-05-04T12:21:17.647Z,6.20
2018-05-04T12:23:45.816Z,6.50
2018-05-04T12:26:12.871Z,6.37
2018-05-04T12:28:41.248Z,6.35
2018-05-04T12:31:08.292Z,6.22
2018-05-04T12:33:35.342Z,5.62
2018-05-04T12:36:03.317Z,5.85
2018-05-04T12:38:31.257Z,5.85
2018-05-04T12:40:58.331Z,5.87
2018-05-04T12:43:25.584Z,5.75
2018-05-04T12:45:52.709Z,5.62
2018-05-04T12:48:21.090Z,5.80
2018-05-04T12:50:48.135Z,5.50
2018-05-04T12:53:15.144Z,5.47
2018-05-04T12:55:42.340Z,5.43
2018-05-04T12:58:09.381Z,6.00
2018-05-04T13:00:36.947Z,6.12
2018-05-04T13:03:03.990Z,6.03
2018-05-04T13:05:31.039Z,5.95
2018-05-04T13:07:58.093Z,5.97
2018-05-04T13:10:25.136Z,2.37
2018-05-04T13:12:52.185Z,3.15
2018-05-04T13:15:19.240Z,3.28
2018-05-04T13:17:48.125Z,3.20
2018-05-04T13:20:15.174Z,3.40
2018-05-04T13:22:42.228Z,3.75
2018-05-04T13:25:09.273Z,3.35
2018-05-04T13:27:36.319Z,2.92
2018-05-04T13:30:03.372Z,4.60
2018-05-04T13:32:30.416Z,4.20
2018-05-04T13:34:57.771Z,4.87
2018-05-04T13:37:25.396Z,5.28
2018-05-04T13:39:52.791Z,4.85
2018-05-04T13:42:19.841Z,5.18
2018-05-04T13:44:46.895Z,5.70
2018-05-04T13:47:13.936Z,5.82
2018-05-04T13:49:40.985Z,7.25
2018-05-04T13:52:08.038Z,7.50
2018-05-04T13:54:35.081Z,8.05
2018-05-04T13:57:02.956Z,9.02
2018-05-04T13:59:29.999Z,8.23
2018-05-04T14:01:57.117Z,8.82
2018-05-04T14:04:24.607Z,10.32
2018-05-04T14:06:53.466Z,9.55
2018-05-04T14:09:20.650Z,10.48
2018-05-04T14:11:47.706Z,10.75
2018-05-04T14:14:14.751Z,11.75
2018-05-04T14:16:41.823Z,12.60
2018-05-04T14:19:08.851Z,12.93
2018-05-04T14:21:35.901Z,13.62
2018-05-04T14:24:02.941Z,12.30
2018-05-04T14:26:29.995Z,9.50
2018-05-04T14:28:57.150Z,10.27
2018-05-04T14:31:24.191Z,9.30
2018-05-04T14:33:51.757Z,8.90
2018-05-04T14:36:18.800Z,9.73
2018-05-04T14:38:45.848Z,10.77
2018-05-04T14:41:12.903Z,11.27
2018-05-04T14:43:39.946Z,11.60
2018-05-04T14:46:06.995Z,8.97
2018-05-04T14:48:34.049Z,8.93
2018-05-04T14:51:01.983Z,9.37
2018-05-04T14:53:29.061Z,10.63
2018-05-04T14:55:57.133Z,10.57
2018-05-04T14:58:24.200Z,13.10
2018-05-04T15:00:51.230Z,13.57
2018-05-04T15:03:18.383Z,13.47
2018-05-04T15:05:45.535Z,13.47
2018-05-04T15:08:12.583Z,14.87
2018-05-04T15:10:39.638Z,13.70
2018-05-04T15:13:06.679Z,14.53
2018-05-04T15:15:33.729Z,16.00
2018-05-04T15:18:00.962Z,14.83
2018-05-04T15:20:28.029Z,14.70
2018-05-04T15:22:55.085Z,12.33
2018-05-04T15:25:22.128Z,12.37
2018-05-04T15:27:49.177Z,11.93
2018-05-04T15:30:16.229Z,10.80
2018-05-04T15:32:43.380Z,11.33
2018-05-04T15:35:10.631Z,11.00
2018-05-04T15:37:37.685Z,10.23
2018-05-04T15:40:04.729Z,11.50
2018-05-04T15:42:32.394Z,11.33
2018-05-04T15:44:59.545Z,11.93
2018-05-04T15:47:26.902Z,12.03
2018-05-04T15:49:54.976Z,13.20
2018-05-04T15:52:22.087Z,11.10
2018-05-04T15:54:49.218Z,10.37
2018-05-04T15:57:17.062Z,8.83
2018-05-04T15:59:45.429Z,7.27
2018-05-04T16:02:12.465Z,7.03
2018-05-04T16:04:40.819Z,6.27
2018-05-04T16:07:07.892Z,6.53
2018-05-04T16:09:35.147Z,6.27
2018-05-04T16:12:02.298Z,6.10
2018-05-04T16:14:29.348Z,6.83
2018-05-04T16:16:56.402Z,6.50
2018-05-04T16:19:23.551Z,6.20
2018-05-04T16:21:52.221Z,6.90
2018-05-04T16:24:19.388Z,7.00
2018-05-04T16:26:46.432Z,7.23
2018-05-04T16:29:13.481Z,7.43
2018-05-04T16:31:40.749Z,7.17
2018-05-04T16:34:07.782Z,8.23
2018-05-04T16:36:35.958Z,8.37
2018-05-04T16:39:03.108Z,7.90
2018-05-04T16:41:30.260Z,8.20
2018-05-04T16:43:57.308Z,7.10
2018-05-04T16:46:30.296Z,6.70
2018-05-04T16:49:02.977Z,7.20
2018-05-04T16:51:30.030Z,6.80
2018-05-04T16:53:57.073Z,6.57
2018-05-04T16:56:24.122Z,6.87
2018-05-04T16:58:53.005Z,6.10
2018-05-04T17:01:20.063Z,5.23
2018-05-04T17:03:47.214Z,6.67
2018-05-04T17:06:14.263Z,5.80
2018-05-04T17:08:41.316Z,5.70
2018-05-04T17:11:11.431Z,6.07
2018-05-04T17:13:38.693Z,5.97
2018-05-04T17:16:05.737Z,6.23
2018-05-04T17:18:32.993Z,6.40
2018-05-04T17:21:01.372Z,6.57
2018-05-04T17:23:28.415Z,6.10
2018-05-04T17:25:56.598Z,6.17
2018-05-04T17:28:23.638Z,6.30
2018-05-04T17:30:50.686Z,6.27
2018-05-04T17:33:17.747Z,6.07
2018-05-04T17:35:45.507Z,5.53
2018-05-04T17:38:12.551Z,5.60
2018-05-04T17:40:39.599Z,5.90
2018-05-04T17:43:07.979Z,5.77
2018-05-04T17:45:36.117Z,5.50
2018-05-04T17:48:04.431Z,5.50
2018-05-04T17:50:31.488Z,5.23
2018-05-04T17:52:58.529Z,4.97
2018-05-04T17:55:25.987Z,5.10
2018-05-04T17:57:53.037Z,5.43
2018-05-04T18:00:20.187Z,4.50
2018-05-04T18:02:47.337Z,5.07
2018-05-04T18:05:15.677Z,5.20
2018-05-04T18:07:42.773Z,5.00
2018-05-04T18:10:11.869Z,4.93
2018-05-04T18:12:38.917Z,4.47
2018-05-04T18:15:05.959Z,5.20
2018-05-04T18:17:33.008Z,4.97
2018-05-04T18:20:00.063Z,5.00
2018-05-04T18:22:27.116Z,5.00
2018-05-04T18:24:54.257Z,4.30
2018-05-04T18:27:21.242Z,4.47
2018-05-04T18:29:49.480Z,5.33
2018-05-04T18:32:16.414Z,5.80
2018-05-04T18:34:44.813Z,4.90
2018-05-04T18:37:11.860Z,5.00
2018-05-04T18:39:39.520Z,4.87
2018-05-04T18:42:06.573Z,4.87
2018-05-04T18:44:33.619Z,4.73
2018-05-04T18:47:00.768Z,5.10
2018-05-04T18:49:27.818Z,4.73
2018-05-04T18:51:55.888Z,5.23
2018-05-04T18:54:22.962Z,4.83
2018-05-04T18:56:49.956Z,4.43
2018-05-04T18:59:17.955Z,5.00
2018-05-04T19:01:45.208Z,4.87
2018-05-04T19:04:12.563Z,4.77
2018-05-04T19:06:39.715Z,4.40
2018-05-04T19:09:06.773Z,4.67
2018-05-04T19:11:34.427Z,4.57
2018-05-04T19:14:01.580Z,4.73
2018-05-04T19:16:28.728Z,4.97
2018-05-04T19:18:56.494Z,5.00
2018-05-04T19:21:24.260Z,5.10
2018-05-04T19:23:51.308Z,4.80
2018-05-04T19:26:18.362Z,4.37
2018-05-04T19:28:45.512Z,4.47
2018-05-04T19:31:12.664Z,4.40
2018-05-04T19:33:39.708Z,4.50
2018-05-04T19:36:07.166Z,5.20
2018-05-04T19:38:34.317Z,5.63
2018-05-04T19:41:01.883Z,4.53
2018-05-04T19:43:29.341Z,4.83
2018-05-04T19:45:56.691Z,4.63
2018-05-04T19:48:23.740Z,4.80
2018-05-04T19:50:51.886Z,4.40
2018-05-04T19:53:18.964Z,4.77
2018-05-04T19:55:46.018Z,4.60
2018-05-04T19:58:13.170Z,4.30
2018-05-04T20:00:40.213Z,4.60
2018-05-04T20:03:07.260Z,5.03
2018-05-04T20:05:34.317Z,5.20
2018-05-04T20:08:01.359Z,5.10
2018-05-04T20:10:28.405Z,4.67
2018-05-04T20:12:55.459Z,4.70
2018-05-04T20:15:23.536Z,5.47
2018-05-04T20:17:50.580Z,4.97
2018-05-04T20:20:17.625Z,5.33
2018-05-04T20:22:44.678Z,5.10
2018-05-04T20:25:11.722Z,5.20
2018-05-04T20:27:38.770Z,5.10
2018-05-04T20:30:05.826Z,5.40
2018-05-04T20:32:33.072Z,4.93
2018-05-04T20:35:01.554Z,5.50
2018-05-04T20:37:29.935Z,5.90
2018-05-04T20:39:57.818Z,5.17
2018-05-04T20:42:24.957Z,5.10
2018-05-04T20:44:52.819Z,5.00
2018-05-04T20:47:19.875Z,5.40
2018-05-04T20:49:47.225Z,5.53
2018-05-04T20:52:14.483Z,5.07
2018-05-04T21:04:32.590Z,4.77
2018-05-04T21:07:02.625Z,5.30
2018-05-04T21:09:30.685Z,5.20
2018-05-04T21:11:57.727Z,5.27
2018-05-04T21:14:26.214Z,5.10
2018-05-04T21:16:54.660Z,5.10
2018-05-04T21:19:21.747Z,5.40
2018-05-04T21:21:54.015Z,5.20
2018-05-04T21:24:22.087Z,5.10
2018-05-04T21:26:49.750Z,5.23
2018-05-04T21:29:16.905Z,6.13
2018-05-04T21:31:43.957Z,5.07
2018-05-04T21:34:12.432Z,5.13
2018-05-04T21:36:40.197Z,5.37
2018-05-04T21:39:07.313Z,5.30
2018-05-04T21:41:34.601Z,5.63
2018-05-04T21:44:01.955Z,6.07
2018-05-04T21:46:29.014Z,5.83
2018-05-04T21:48:56.361Z,5.23
2018-05-04T21:51:23.515Z,5.37
2018-05-04T21:53:50.968Z,5.70
2018-05-04T21:56:18.841Z,5.77
2018-05-04T21:58:45.885Z,5.87
2018-05-04T22:01:13.037Z,6.03
2018-05-04T22:03:40.084Z,5.33
2018-05-04T22:06:07.143Z,5.47
2018-05-04T22:08:34.182Z,5.53
2018-05-04T22:11:01.332Z,5.07
2018-05-04T22:13:28.592Z,5.90
2018-05-04T22:15:56.621Z,5.80
2018-05-04T22:18:23.605Z,5.50
2018-05-04T22:20:50.757Z,5.07
2018-05-04T22:23:17.810Z,5.80
2018-05-04T22:25:44.854Z,5.53
2018-05-04T22:28:11.902Z,6.17
2018-05-04T22:30:38.957Z,5.63
2018-05-04T22:33:05.998Z,6.10
2018-05-04T22:35:33.057Z,5.70
2018-05-04T22:38:00.100Z,5.57
2018-05-04T22:40:27.144Z,6.07
2018-05-04T22:42:54.193Z,6.30
2018-05-04T22:45:21.246Z,6.60
2018-05-04T22:47:49.110Z,6.20
2018-05-04T22:50:16.122Z,6.13
2018-05-04T22:52:43.207Z,6.70
2018-05-04T22:55:10.253Z,6.70
2018-05-04T22:57:37.308Z,6.50
2018-05-04T23:00:04.352Z,6.90
2018-05-04T23:02:31.401Z,7.00
2018-05-04T23:04:58.454Z,7.10
2018-05-04T23:07:25.499Z,6.47
2018-05-04T23:09:52.545Z,6.77
2018-05-04T23:12:19.600Z,6.53
2018-05-04T23:14:46.645Z,6.53
2018-05-04T23:17:14.415Z,6.53
2018-05-04T23:19:41.458Z,6.93
2018-05-04T23:22:17.420Z,7.23
2018-05-04T23:24:44.464Z,7.10
2018-05-04T23:27:11.511Z,6.63
2018-05-04T23:29:38.664Z,6.77
2018-05-04T23:32:05.673Z,7.10
2018-05-04T23:34:32.830Z,7.10
2018-05-04T23:36:59.809Z,6.77
2018-05-04T23:39:27.061Z,7.00
2018-05-04T23:41:54.112Z,6.47
2018-05-04T23:44:21.261Z,7.27
2018-05-04T23:46:49.237Z,7.17
2018-05-04T23:49:16.655Z,7.07
2018-05-04T23:51:44.968Z,6.50
2018-05-04T23:54:12.121Z,6.57
2018-05-04T23:56:39.167Z,6.40
2018-05-04T23:59:06.222Z,6.20
